createdAt,value
2017-09-12T00:04:42.867Z,0
2017-09-12T00:14:56.394Z,0
2017-09-12T00:25:11.080Z,0
2017-09-12T00:35:24.253Z,0
2017-09-12T00:45:38.185Z,0
2017-09-12T00:55:51.876Z,0
2017-09-12T01:06:05.672Z,0
2017-09-12T01:16:20.594Z,0
2017-09-12T01:26:35.255Z,0
2017-09-12T01:36:49.313Z,0
2017-09-12T01:46:59.533Z,0
2017-09-12T01:57:12.825Z,0
2017-09-12T02:07:27.153Z,0
2017-09-12T02:17:41.856Z,0
2017-09-12T02:27:55.972Z,0
2017-09-12T02:38:09.486Z,0
2017-09-12T02:48:23.612Z,0
2017-09-12T02:58:38.403Z,0
2017-09-12T03:08:52.684Z,0
2017-09-12T03:19:06.915Z,0
2017-09-12T03:29:21.096Z,0
2017-09-12T03:39:35.359Z,0
2017-09-12T03:49:50.342Z,0
2017-09-12T04:00:00.595Z,0
2017-09-12T04:10:14.355Z,0
2017-09-12T04:20:29.113Z,0
2017-09-12T04:30:43.090Z,0
2017-09-12T04:40:58.165Z,0
2017-09-12T04:51:11.723Z,0
2017-09-12T05:01:25.943Z,5
2017-09-12T05:11:40.522Z,10
2017-09-12T05:21:54.446Z,20
2017-09-12T05:32:09.288Z,50
2017-09-12T05:42:22.406Z,60
2017-09-12T05:52:35.672Z,75
2017-09-12T06:02:49.376Z,115
2017-09-12T06:12:59.615Z,150
2017-09-12T06:23:13.088Z,235
2017-09-12T06:33:27.948Z,90
2017-09-12T06:43:42.273Z,185
2017-09-12T06:53:55.981Z,190
2017-09-12T07:04:10.328Z,215
2017-09-12T07:14:25.216Z,275
2017-09-12T07:24:39.667Z,295
2017-09-12T07:34:52.871Z,655
2017-09-12T07:45:07.541Z,245
2017-09-12T07:55:21.450Z,480
2017-09-12T08:05:34.955Z,1120
2017-09-12T08:15:49.978Z,645
2017-09-12T08:26:00.292Z,455
2017-09-12T08:36:10.623Z,485
2017-09-12T08:46:24.849Z,1315
2017-09-12T08:56:38.709Z,1265
2017-09-12T09:06:52.727Z,750
2017-09-12T09:17:07.373Z,1395
2017-09-12T09:27:20.765Z,425
2017-09-12T09:37:34.175Z,580
2017-09-12T09:47:48.997Z,865
2017-09-12T09:58:03.121Z,1305
2017-09-12T10:08:16.645Z,665
2017-09-12T10:18:31.604Z,680
2017-09-12T10:28:46.739Z,620
2017-09-12T10:39:00.943Z,605
2017-09-12T10:49:11.316Z,660
2017-09-12T10:59:26.388Z,645
2017-09-12T11:09:40.594Z,550
2017-09-12T11:19:55.296Z,1705
2017-09-12T11:30:09.418Z,1705
2017-09-12T11:40:22.881Z,615
2017-09-12T11:50:36.785Z,645
2017-09-12T12:00:50.076Z,1815
2017-09-12T12:11:04.365Z,1125
2017-09-12T12:21:18.804Z,1810
2017-09-12T12:31:33.189Z,615
2017-09-12T12:41:47.334Z,665
2017-09-12T12:52:02.472Z,1630
2017-09-12T13:02:12.836Z,495
2017-09-12T13:12:23.200Z,1260
2017-09-12T13:22:38.215Z,1550
2017-09-12T13:32:51.526Z,270
2017-09-12T13:43:04.899Z,175
2017-09-12T13:53:19.301Z,580
2017-09-12T14:03:34.012Z,520
2017-09-12T14:13:47.467Z,1385
2017-09-12T14:24:02.269Z,1205
2017-09-12T14:34:16.743Z,1240
2017-09-12T14:44:31.408Z,1145
2017-09-12T14:54:45.478Z,1075
2017-09-12T15:04:59.322Z,1010
2017-09-12T15:15:14.505Z,415
2017-09-12T15:25:24.845Z,105
2017-09-12T15:35:38.323Z,950
2017-09-12T15:45:52.581Z,975
2017-09-12T15:56:07.679Z,465
2017-09-12T16:06:21.720Z,635
2017-09-12T16:16:36.138Z,510
2017-09-12T16:26:49.338Z,465
2017-09-12T16:37:04.382Z,315
2017-09-12T16:47:18.406Z,175
2017-09-12T16:57:32.998Z,145
2017-09-12T17:07:46.274Z,115
2017-09-12T17:18:00.221Z,90
2017-09-12T17:28:14.965Z,65
2017-09-12T17:38:25.227Z,35
2017-09-12T17:48:38.876Z,15
2017-09-12T17:58:52.986Z,5
2017-09-12T18:09:08.041Z,0
2017-09-12T18:19:21.377Z,0
2017-09-12T18:29:35.906Z,0
2017-09-12T18:39:50.058Z,0
2017-09-12T18:50:03.309Z,0
2017-09-12T19:00:17.753Z,0
2017-09-12T19:10:31.602Z,0
2017-09-12T19:20:45.577Z,0
2017-09-12T19:30:59.733Z,0
2017-09-12T19:41:13.381Z,0
2017-09-12T19:51:23.613Z,0
2017-09-12T20:01:36.757Z,0
2017-09-12T20:11:50.220Z,0
2017-09-12T20:22:04.328Z,0
2017-09-12T20:32:18.324Z,0
2017-09-12T20:42:31.698Z,0
2017-09-12T20:52:44.895Z,0
2017-09-12T21:02:59.787Z,0
2017-09-12T21:13:13.825Z,0
2017-09-12T21:23:27.433Z,0
2017-09-12T21:33:41.914Z,0
2017-09-12T21:43:55.999Z,0
2017-09-12T21:54:10.864Z,0
2017-09-12T22:04:21.134Z,0
2017-09-12T22:14:36.114Z,0
2017-09-12T22:24:49.430Z,0
2017-09-12T22:35:04.038Z,0
2017-09-12T22:45:18.726Z,0
2017-09-12T22:55:32.045Z,0
2017-09-12T23:05:46.557Z,0
2017-09-12T23:16:00.963Z,0
2017-09-12T23:26:14.143Z,0
2017-09-12T23:36:28.378Z,0
2017-09-12T23:46:41.494Z,0
2017-09-12T23:56:56.353Z,0
